Terminal Aerodrome Forecast
Issued by NWS Sterling, VA

Current Version | Previous Version | Graphics & Text | Print | Product List | Glossary On
Versions: 1 2 3 4 5 6 7 8 9 10 11 12 13 14 15 16 17 18 19 20 21 22 23 24
180
FTUS41 KLWX 032342
TAFDCA
TAF
KDCA 032342Z 0400/0424 31013KT P6SM SCT040 BKN250
     FM040500 31007KT P6SM FEW040 BKN250
     FM042000 22004KT P6SM OVC130=

USA.gov is the U.S. government's official web portal to all federal, state and local government web resources and services.